ADDS METAR Data INFO
IDs: Format: Raw Decoded Include TAF

Data at: 0714 UTC 19 Oct 2017

KOLS 190654Z AUTO 05004KT 10SM CLR 18/03 A3004 RMK AO2 SLP104 T01830028 403330156 TSNO
KOLS 190554Z AUTO 09006KT 10SM CLR 19/03 A3005 RMK AO2 SLP110 T01890028 10300 20183 50004 TSNO
KOLS 190454Z AUTO 07004KT 10SM CLR 18/03 A3006 RMK AO2 SLP114 T01830028 TSNO
KOLS 190354Z AUTO 10004KT 10SM CLR 20/03 A3005 RMK AO2 SLP116 T02000028 TSNO
KOLS 190254Z AUTO 00000KT 10SM CLR 22/03 A3004 RMK AO2 SLP116 T02170028 53009 TSNO
KOLS 190154Z AUTO 08003KT 10SM CLR 23/02 A3003 RMK AO2 SLP113 T02330022 TSNO
KOLS 190054Z AUTO 32004KT 10SM CLR 28/02 A3002 RMK AO2 SLP103 T02780022 TSNO
KOLS 182354Z AUTO 29006KT 10SM CLR 30/02 A3001 RMK AO2 SLP096 T03000017 10333 20300 56009 TSNO
KOLS 182254Z AUTO 00000KT 10SM CLR 31/03 A3002 RMK AO2 SLP097 T03110033 TSNO
KOLS 182154Z AUTO VRB03KT 10SM CLR 31/02 A3003 RMK AO2 SLP100 T03110017 TSNO
KOLS 182054Z AUTO 27008KT 10SM CLR 33/02 A3004 RMK AO2 SLP101 T03280022 58024 TSNO
KOLS 181954Z AUTO VRB06KT 10SM CLR 33/03 A3007 RMK AO2 SLP108 T03330033 TSNO
KOLS 181854Z AUTO VRB06KT 10SM CLR 32/05 A3010 RMK AO2 SLP121 T03170050 TSNO
KOLS 181754Z AUTO 00000KT 10SM CLR 30/05 A3012 RMK AO2 SLP129 T03000050 10300 20156 50001 TSNO
KOLS 181654Z AUTO 00000KT 10SM CLR 28/06 A3014 RMK AO2 SLP135 T02780056 TSNO
KOLS 181554Z AUTO 00000KT 10SM CLR 23/07 A3014 RMK AO2 SLP141 T02330067 TSNO
KOLS 181454Z AUTO 00000KT 10SM CLR 19/07 A3012 RMK AO2 SLP138 T01940072 53011 TSNO
KOLS 181354Z AUTO 04003KT 10SM CLR 16/07 A3011 RMK AO2 SLP137 T01610067 TSNO
KOLS 181254Z AUTO 22003KT 10SM CLR 17/07 A3010 RMK AO2 SLP129 T01720067 TSNO
KOLS 181154Z AUTO 00000KT 10SM CLR 17/07 A3009 RMK AO2 SLP122 T01720067 10228 20172 55003 TSNO
KOLS 181054Z AUTO 00000KT 10SM SCT090 18/07 A3008 RMK AO2 SLP118 T01780067 TSNO
KOLS 180954Z AUTO 06004KT 10SM FEW100 18/07 A3009 RMK AO2 SLP121 T01780067 TSNO
KOLS 180854Z AUTO 07003KT 10SM CLR 19/07 A3010 RMK AO2 SLP121 T01890067 58004 TSNO
KOLS 180754Z AUTO 15003KT 10SM CLR 21/06 A3010 RMK AO2 SLP122 T02110061 TSNO
KOLS 180654Z AUTO 00000KT 10SM SCT095 SCT110 21/07 A3011 RMK AO2 SLP123 T02060067 403280156 TSNO
KOLS 180554Z AUTO 00000KT 10SM BKN100 22/07 A3011 RMK AO2 SLP123 T02220067 10300 20222 50004 TSNO
KOLS 180454Z AUTO 17003KT 10SM OVC100 23/07 A3011 RMK AO2 SLP127 T02330072 TSNO
KOLS 180354Z AUTO 15003KT 10SM FEW100 23/07 A3011 RMK AO2 SLP129 T02330067 TSNO
KOLS 180254Z AUTO 00000KT 10SM FEW100 26/06 A3010 RMK AO2 SLP127 T02560061 53006 TSNO
KOLS 180154Z AUTO 00000KT 10SM BKN100 26/06 A3009 RMK AO2 SLP133 T02610061 TSNO
KOLS 180054Z AUTO 26003KT 10SM SCT110 28/07 A3008 RMK AO2 SLP124 T02780067 TSNO
KOLS 172354Z AUTO 26005KT 10SM CLR 30/06 A3008 RMK AO2 SLP120 T03000061 10328 20294 56007 TSNO
KOLS 172254Z AUTO 25007KT 10SM FEW100 31/06 A3008 RMK AO2 SLP117 T03110061 TSNO
KOLS 172154Z AUTO 25006KT 10SM SCT100 BKN120 32/07 A3008 RMK AO2 SLP118 T03170067 TSNO
KOLS 172054Z AUTO 08004KT 10SM FEW110 32/07 A3010 RMK AO2 SLP123 T03170072 58026 TSNO
KOLS 171954Z AUTO 10SM CLR 31/08 A3013 RMK AO2 SLP134 T03110078 TSNO